This is the latest recevied weather packets stored in our database for station/object AD8BV. If no packets are shown the sender has not sent any weather packets the latest 10 day(s).
| Time | Temp. | Humidity | Pressure | Rain* | Wind** | Luminosity | Snow |
|---|---|---|---|---|---|---|---|
| 1777667999 | 8.33° C | 65% | 1016.3 hPa | 0 mm | - | 108 W/m² | - |
| 1777667696 | 8.89° C | 61% | 1016.5 hPa | 0 mm | - | 159 W/m² | - |
| 1777667394 | 8.89° C | 61% | 1016.3 hPa | 0 mm | - | 211 W/m² | - |
| 1777667090 | 8.89° C | 62% | 1016.3 hPa | 0 mm | - | 381 W/m² | - |
| 1777666787 | 8.89° C | 59% | 1016.3 hPa | 0 mm | - | 343 W/m² | - |
| 1777666484 | 8.89° C | 60% | 1016.4 hPa | 0 mm | - | 367 W/m² | - |
| 1777666181 | 8.33° C | 64% | 1016.5 hPa | 0 mm | - | 265 W/m² | - |
| 1777665878 | 8.33° C | 64% | 1016.5 hPa | 0 mm | - | 232 W/m² | - |
| 1777665576 | 8.33° C | 63% | 1016.3 hPa | 0 mm | - | 180 W/m² | - |
| 1777665272 | 7.78° C | 66% | 1016.4 hPa | 0 mm | - | 166 W/m² | - |
| 1777664968 | 8.33° C | 64% | 1016.2 hPa | 0 mm | - | 125 W/m² | - |
| 1777664664 | 8.33° C | 64% | 1016.3 hPa | 0 mm | - | 110 W/m² | - |
| 1777664360 | 8.33° C | 64% | 1016.1 hPa | 0 mm | - | 158 W/m² | - |
| 1777664059 | 8.33° C | 65% | 1016.2 hPa | 0 mm | - | 137 W/m² | - |
| 1777663756 | 8.33° C | 64% | 1016.3 hPa | 0 mm | - | 108 W/m² | - |
| 1777663453 | 8.89° C | 62% | 1016.2 hPa | 0 mm | - | 119 W/m² | - |
| 1777663150 | 8.89° C | 61% | 1016.1 hPa | 0 mm | - | 147 W/m² | - |
| 1777662847 | 8.89° C | 58% | 1016.2 hPa | 0 mm | - | 207 W/m² | - |
| 1777662544 | 8.89° C | 59% | 1016 hPa | 0 mm | - | 283 W/m² | - |
| 1777662240 | 8.89° C | 59% | 1016.2 hPa | 0 mm | - | 285 W/m² | - |
| 1777661935 | 8.89° C | 58% | 1015.7 hPa | 0 mm | - | 240 W/m² | - |
| 1777661631 | 8.89° C | 60% | 1015.7 hPa | 0 mm | - | 213 W/m² | - |
| 1777661327 | 8.89° C | 59% | 1015.9 hPa | 0 mm | - | 155 W/m² | - |
| 1777661024 | 8.89° C | 60% | 1015.9 hPa | 0 mm | - | 163 W/m² | - |
| 1777660719 | 9.44° C | 57% | 1015.4 hPa | 0 mm | - | 230 W/m² | - |
* Rain latest hour (hover to see other rain measurements)
** Current wind speed in m/s (hover to see current wind gust speed)